createdAt,value
2017-04-16T00:00:14.232Z,12.02
2017-04-16T00:01:13.500Z,12.83
2017-04-16T00:02:12.704Z,10.00
2017-04-16T00:03:11.905Z,8.55
2017-04-16T00:04:11.152Z,13.55
2017-04-16T00:05:10.368Z,7.43
2017-04-16T00:06:09.576Z,8.60
2017-04-16T00:07:08.783Z,8.30
2017-04-16T00:08:07.997Z,9.03
2017-04-16T00:09:07.983Z,10.32
2017-04-16T00:10:07.200Z,7.95
2017-04-16T00:11:06.420Z,9.15
2017-04-16T00:12:05.671Z,9.65
2017-04-16T00:13:04.923Z,9.52
2017-04-16T00:14:04.173Z,8.98
2017-04-16T00:15:04.165Z,11.23
2017-04-16T00:16:03.409Z,9.90
2017-04-16T00:17:02.620Z,14.23
2017-04-16T00:18:01.840Z,7.07
2017-04-16T00:19:01.067Z,8.53
2017-04-16T00:20:00.284Z,8.62
2017-04-16T00:20:59.507Z,12.92
2017-04-16T00:21:58.729Z,10.28
2017-04-16T00:22:57.957Z,10.03
2017-04-16T00:23:57.284Z,7.52
2017-04-16T00:24:56.492Z,9.95
2017-04-16T00:25:55.709Z,12.55
2017-04-16T00:26:54.940Z,15.22
2017-04-16T00:27:54.180Z,9.25
2017-04-16T00:28:53.393Z,7.52
2017-04-16T00:29:52.656Z,9.13
2017-04-16T00:30:52.612Z,9.87
2017-04-16T00:31:51.840Z,9.88
2017-04-16T00:32:51.792Z,9.63
2017-04-16T00:33:50.224Z,7.60
2017-04-16T00:34:49.499Z,9.00
2017-04-16T00:35:48.700Z,9.35
2017-04-16T00:36:47.907Z,9.03
2017-04-16T00:37:47.115Z,9.07
2017-04-16T00:38:46.332Z,13.07
2017-04-16T00:39:45.588Z,10.52
2017-04-16T00:40:44.809Z,13.73
2017-04-16T00:41:44.023Z,10.55
2017-04-16T00:42:43.256Z,8.30
2017-04-16T00:43:42.484Z,13.05
2017-04-16T00:44:41.728Z,10.57
2017-04-16T00:45:40.959Z,12.27
2017-04-16T00:46:40.422Z,10.17
2017-04-16T00:47:39.630Z,10.82
2017-04-16T00:48:38.852Z,12.43
2017-04-16T00:49:38.085Z,8.98
2017-04-16T00:50:38.048Z,8.78
2017-04-16T00:51:37.248Z,9.87
2017-04-16T00:52:36.469Z,15.30
2017-04-16T00:53:35.685Z,11.75
2017-04-16T00:54:35.237Z,7.50
2017-04-16T00:55:34.485Z,8.70
2017-04-16T00:56:33.692Z,13.45
2017-04-16T00:57:32.904Z,7.62
2017-04-16T00:58:32.112Z,7.67
2017-04-16T00:59:31.323Z,11.05
2017-04-16T01:00:34.791Z,9.50
2017-04-16T01:01:39.508Z,8.67
2017-04-16T01:02:42.627Z,9.30
2017-04-16T01:03:41.839Z,10.78
2017-04-16T01:04:41.375Z,9.52
2017-04-16T01:05:40.612Z,11.63
2017-04-16T01:06:39.844Z,10.40
2017-04-16T01:07:39.071Z,8.37
2017-04-16T01:08:38.288Z,9.37
2017-04-16T01:09:37.511Z,9.57
2017-04-16T01:10:36.740Z,10.63
2017-04-16T01:11:35.955Z,10.62
2017-04-16T01:12:35.187Z,11.87
2017-04-16T01:13:34.685Z,8.35
2017-04-16T01:14:33.895Z,9.32
2017-04-16T01:15:33.144Z,6.85
2017-04-16T01:16:32.372Z,8.43
2017-04-16T01:17:33.183Z,13.85
2017-04-16T01:18:32.400Z,10.05
2017-04-16T01:19:31.619Z,8.45
2017-04-16T01:20:30.919Z,10.98
2017-04-16T01:21:30.141Z,11.23
2017-04-16T01:22:29.356Z,10.48
2017-04-16T01:23:28.596Z,10.07
2017-04-16T01:24:27.813Z,9.90
2017-04-16T01:25:27.083Z,8.80
2017-04-16T01:26:26.312Z,8.22
2017-04-16T01:27:25.528Z,12.37
2017-04-16T01:28:24.785Z,12.02
2017-04-16T01:29:24.000Z,11.27
2017-04-16T01:30:23.585Z,11.52
2017-04-16T01:31:22.800Z,9.87
2017-04-16T01:32:22.809Z,11.85
2017-04-16T01:33:22.016Z,13.45
2017-04-16T01:34:21.220Z,9.18
2017-04-16T01:35:20.428Z,11.68
2017-04-16T01:36:19.664Z,9.62
2017-04-16T01:37:18.867Z,9.35
2017-04-16T01:38:18.097Z,12.73
2017-04-16T01:39:17.388Z,11.53
2017-04-16T01:40:16.598Z,9.77
2017-04-16T01:41:15.924Z,12.28
2017-04-16T01:42:15.133Z,9.90
2017-04-16T01:43:14.348Z,13.28
2017-04-16T01:44:13.587Z,13.12
2017-04-16T01:45:12.809Z,12.70
2017-04-16T01:46:12.093Z,15.05
2017-04-16T01:47:11.307Z,11.38
2017-04-16T01:48:10.632Z,12.18
2017-04-16T01:49:09.857Z,13.23
2017-04-16T01:50:09.084Z,11.73
2017-04-16T01:51:08.346Z,12.17
2017-04-16T01:52:07.583Z,10.92
2017-04-16T01:53:06.788Z,13.02
2017-04-16T01:54:06.759Z,14.73
2017-04-16T01:55:05.976Z,11.97
2017-04-16T01:56:05.224Z,12.90
2017-04-16T01:57:04.472Z,13.10
2017-04-16T01:58:03.707Z,12.08
2017-04-16T01:59:02.939Z,13.98
2017-04-16T02:00:02.184Z,14.38
2017-04-16T02:01:01.792Z,11.77
2017-04-16T02:02:01.014Z,15.27
2017-04-16T02:03:00.241Z,12.88
2017-04-16T02:03:59.543Z,11.45
2017-04-16T02:04:58.861Z,11.28
2017-04-16T02:05:58.830Z,12.23
2017-04-16T02:06:58.179Z,11.63
2017-04-16T02:07:57.416Z,11.48
2017-04-16T02:08:56.637Z,13.65
2017-04-16T02:09:55.921Z,11.42
2017-04-16T02:10:55.150Z,13.77
2017-04-16T02:11:54.408Z,14.90
2017-04-16T02:12:53.641Z,11.58
2017-04-16T02:13:52.871Z,13.25
2017-04-16T02:14:52.101Z,11.43
2017-04-16T02:15:51.316Z,13.85
2017-04-16T02:16:50.612Z,9.70
2017-04-16T02:17:49.982Z,13.32
2017-04-16T02:18:49.224Z,12.05
2017-04-16T02:19:48.480Z,17.03
2017-04-16T02:20:47.696Z,16.40
2017-04-16T02:21:46.942Z,13.50
2017-04-16T02:22:46.157Z,9.38
2017-04-16T02:23:45.391Z,10.85
2017-04-16T02:24:44.647Z,12.60
2017-04-16T02:25:43.961Z,12.85
2017-04-16T02:26:43.208Z,16.77
2017-04-16T02:27:42.421Z,12.22
2017-04-16T02:28:41.648Z,11.33
2017-04-16T02:29:40.859Z,10.45
2017-04-16T02:30:45.656Z,9.63
2017-04-16T02:31:44.509Z,11.45
2017-04-16T02:32:43.745Z,9.52
2017-04-16T02:33:42.947Z,10.20
2017-04-16T02:34:42.203Z,10.72
2017-04-16T02:35:41.793Z,12.88
2017-04-16T02:36:40.994Z,8.07
2017-04-16T02:37:40.256Z,13.43
2017-04-16T02:38:39.472Z,10.60
2017-04-16T02:39:38.692Z,11.03
2017-04-16T02:40:37.899Z,13.10
2017-04-16T02:41:37.117Z,8.82
2017-04-16T02:42:36.356Z,12.75
2017-04-16T02:43:35.563Z,9.57
2017-04-16T02:44:34.775Z,12.40
2017-04-16T02:45:34.000Z,13.47
2017-04-16T02:46:33.208Z,9.47
2017-04-16T02:47:32.475Z,11.40
2017-04-16T02:48:31.765Z,14.52
2017-04-16T02:49:31.046Z,8.85
2017-04-16T02:50:30.280Z,11.07
2017-04-16T02:51:29.525Z,10.08
2017-04-16T02:52:28.759Z,12.07
2017-04-16T02:53:27.976Z,8.98
2017-04-16T02:54:27.193Z,7.73
2017-04-16T02:55:26.459Z,11.38
2017-04-16T02:56:25.722Z,10.85
2017-04-16T02:57:24.970Z,13.12
2017-04-16T02:58:24.195Z,9.27
2017-04-16T02:59:23.412Z,11.25
2017-04-16T03:00:22.636Z,11.15
2017-04-16T03:01:21.835Z,8.33
2017-04-16T03:02:21.112Z,9.83
2017-04-16T03:03:20.348Z,8.85
2017-04-16T03:04:19.632Z,8.48
2017-04-16T03:05:18.858Z,10.02
2017-04-16T03:06:18.088Z,12.83
2017-04-16T03:07:17.324Z,9.57
2017-04-16T03:08:17.320Z,10.20
2017-04-16T03:09:16.548Z,7.05
2017-04-16T03:10:15.776Z,10.25
2017-04-16T03:11:14.988Z,8.45
2017-04-16T03:12:14.284Z,9.55
2017-04-16T03:13:13.749Z,7.52
2017-04-16T03:14:12.973Z,8.37
2017-04-16T03:15:12.184Z,12.95
2017-04-16T03:16:11.407Z,8.27
2017-04-16T03:17:10.661Z,10.12
2017-04-16T03:18:09.905Z,12.20
2017-04-16T03:19:09.140Z,7.42
2017-04-16T03:20:08.348Z,10.00
2017-04-16T03:21:07.588Z,9.32
2017-04-16T03:22:06.836Z,9.32
2017-04-16T03:23:06.087Z,14.45
2017-04-16T03:24:05.293Z,11.20
2017-04-16T03:25:04.532Z,12.15
2017-04-16T03:26:03.760Z,8.27
2017-04-16T03:27:02.997Z,13.30
2017-04-16T03:28:03.012Z,9.05
2017-04-16T03:29:02.282Z,8.60
2017-04-16T03:30:01.504Z,11.90
2017-04-16T03:31:00.718Z,7.47
2017-04-16T03:31:59.941Z,6.05
2017-04-16T03:32:59.173Z,8.93
2017-04-16T03:33:57.634Z,9.23
2017-04-16T03:34:57.091Z,8.33
2017-04-16T03:35:56.299Z,7.85
2017-04-16T03:36:55.516Z,10.93
2017-04-16T03:37:54.763Z,8.30
2017-04-16T03:38:53.980Z,9.12
2017-04-16T03:39:53.220Z,8.82
2017-04-16T03:40:52.447Z,7.88
2017-04-16T03:41:51.669Z,5.27
2017-04-16T03:42:50.916Z,10.95
2017-04-16T03:43:50.146Z,9.40
2017-04-16T03:44:49.356Z,11.53
2017-04-16T03:45:48.572Z,5.63
2017-04-16T03:46:47.797Z,9.37
2017-04-16T03:47:47.112Z,6.63
2017-04-16T03:48:46.345Z,8.12
2017-04-16T03:49:45.564Z,5.75
2017-04-16T03:50:44.781Z,10.05
2017-04-16T03:51:43.999Z,7.00
2017-04-16T03:52:43.209Z,8.90
2017-04-16T03:53:42.460Z,10.25
2017-04-16T03:54:41.677Z,11.63
2017-04-16T03:55:40.892Z,9.13
2017-04-16T03:56:40.108Z,9.65
2017-04-16T03:57:39.320Z,6.80
2017-04-16T03:58:38.552Z,6.77
2017-04-16T03:59:37.791Z,10.83
2017-04-16T04:00:37.011Z,6.97
2017-04-16T04:01:36.224Z,9.15
2017-04-16T04:02:35.449Z,8.72
2017-04-16T04:03:34.689Z,9.88
2017-04-16T04:04:33.950Z,6.60
2017-04-16T04:05:33.180Z,12.15
2017-04-16T04:06:32.383Z,10.33
2017-04-16T04:07:31.588Z,7.68
2017-04-16T04:08:30.815Z,14.67
2017-04-16T04:09:30.031Z,6.78
2017-04-16T04:10:29.244Z,5.75
2017-04-16T04:11:27.696Z,8.93
2017-04-16T04:12:26.899Z,7.10
2017-04-16T04:13:26.136Z,6.57
2017-04-16T04:14:25.359Z,8.35
2017-04-16T04:15:24.613Z,9.25
2017-04-16T04:16:23.836Z,7.40
2017-04-16T04:17:23.044Z,7.65
2017-04-16T04:18:22.275Z,8.30
2017-04-16T04:19:21.543Z,9.90
2017-04-16T04:20:20.756Z,11.60
2017-04-16T04:21:19.964Z,6.45
2017-04-16T04:22:19.168Z,6.23
2017-04-16T04:23:18.388Z,8.07
2017-04-16T04:24:17.615Z,7.28
2017-04-16T04:25:16.850Z,10.27
2017-04-16T04:26:16.077Z,4.97
2017-04-16T04:27:15.292Z,8.65
2017-04-16T04:28:15.231Z,9.77
2017-04-16T04:29:14.492Z,8.30
2017-04-16T04:30:13.697Z,6.53
2017-04-16T04:31:12.921Z,7.40
2017-04-16T04:32:12.140Z,7.72
2017-04-16T04:33:11.353Z,6.15
2017-04-16T04:34:10.593Z,7.70
2017-04-16T04:35:09.808Z,7.62
2017-04-16T04:36:09.024Z,6.35
2017-04-16T04:37:08.233Z,6.25
2017-04-16T04:38:07.488Z,11.90
2017-04-16T04:39:06.719Z,5.87
2017-04-16T04:40:05.928Z,8.77
2017-04-16T04:41:05.160Z,11.08
2017-04-16T04:42:04.368Z,7.52
2017-04-16T04:43:03.596Z,6.60
2017-04-16T04:44:02.838Z,5.98
2017-04-16T04:45:02.069Z,8.25
2017-04-16T04:46:01.308Z,8.57
2017-04-16T04:47:01.269Z,9.63
2017-04-16T04:48:00.484Z,6.25
2017-04-16T04:48:59.726Z,7.60
2017-04-16T04:49:58.982Z,6.92
2017-04-16T04:50:58.188Z,4.40
2017-04-16T04:51:57.397Z,7.63
2017-04-16T04:52:56.610Z,8.08
2017-04-16T04:53:55.819Z,5.57
2017-04-16T04:54:55.052Z,5.78
2017-04-16T04:55:54.348Z,7.43
2017-04-16T04:56:53.547Z,6.80
2017-04-16T04:57:52.753Z,7.67
2017-04-16T04:58:51.965Z,7.73
2017-04-16T04:59:51.192Z,8.52
2017-04-16T05:00:50.424Z,6.22
2017-04-16T05:01:49.627Z,9.40
2017-04-16T05:02:48.861Z,7.28
2017-04-16T05:03:48.069Z,10.37
2017-04-16T05:04:47.312Z,9.95
2017-04-16T05:05:46.537Z,10.95
2017-04-16T05:06:45.760Z,11.57
2017-04-16T05:07:45.000Z,9.08
2017-04-16T05:08:44.212Z,10.03
2017-04-16T05:09:43.452Z,10.93
2017-04-16T05:10:42.661Z,9.23
2017-04-16T05:11:41.864Z,9.35
2017-04-16T05:12:41.093Z,9.62
2017-04-16T05:13:40.313Z,8.22
2017-04-16T05:14:39.553Z,8.70
2017-04-16T05:15:38.789Z,12.62
2017-04-16T05:16:38.002Z,9.98
2017-04-16T05:17:37.213Z,7.32
2017-04-16T05:18:36.425Z,6.65
2017-04-16T05:19:35.680Z,8.15
2017-04-16T05:20:34.900Z,8.20
2017-04-16T05:21:34.112Z,7.68
2017-04-16T05:22:33.320Z,9.45
2017-04-16T05:23:32.561Z,7.98
2017-04-16T05:24:32.108Z,8.57
2017-04-16T05:25:31.397Z,10.10
2017-04-16T05:26:30.613Z,7.10
2017-04-16T05:27:30.571Z,6.67
2017-04-16T05:28:30.521Z,9.78
2017-04-16T05:29:29.829Z,7.00
2017-04-16T05:30:29.076Z,5.85
2017-04-16T05:31:28.333Z,13.02
2017-04-16T05:32:27.548Z,9.37
2017-04-16T05:33:26.760Z,10.72
2017-04-16T05:34:26.021Z,10.23
2017-04-16T05:35:25.271Z,10.57
2017-04-16T05:36:24.480Z,10.08
2017-04-16T05:37:23.695Z,9.77
2017-04-16T05:38:22.908Z,7.85
2017-04-16T05:39:22.161Z,9.18
2017-04-16T05:40:21.413Z,8.72
2017-04-16T05:41:20.626Z,7.20
2017-04-16T05:42:19.835Z,13.40
2017-04-16T05:43:19.039Z,7.18
2017-04-16T05:44:18.262Z,7.17
2017-04-16T05:45:17.501Z,13.00
2017-04-16T05:46:16.715Z,6.70
2017-04-16T05:47:15.928Z,8.72
2017-04-16T05:48:15.150Z,10.60
2017-04-16T05:49:14.405Z,11.37
2017-04-16T05:50:13.648Z,14.68
2017-04-16T05:51:12.092Z,9.15
2017-04-16T05:52:11.309Z,12.18
2017-04-16T05:53:10.517Z,12.68
2017-04-16T05:54:09.732Z,13.22
2017-04-16T05:55:08.968Z,10.33
2017-04-16T05:56:08.168Z,8.53
2017-04-16T05:57:07.377Z,9.23
2017-04-16T05:58:06.596Z,11.73
2017-04-16T05:59:05.804Z,8.85
2017-04-16T06:00:05.328Z,7.78
2017-04-16T06:01:03.776Z,10.63
2017-04-16T06:02:03.006Z,9.83
2017-04-16T06:03:02.220Z,10.35
2017-04-16T06:04:01.431Z,9.83
2017-04-16T06:05:00.659Z,9.28
2017-04-16T06:05:59.889Z,7.75
2017-04-16T06:06:59.132Z,12.15
2017-04-16T06:07:58.500Z,7.18
2017-04-16T06:08:57.733Z,7.43
2017-04-16T06:09:56.948Z,6.33
2017-04-16T06:10:55.412Z,14.35
2017-04-16T06:11:54.611Z,7.88
2017-04-16T06:12:53.858Z,8.17
2017-04-16T06:13:53.077Z,9.68
2017-04-16T06:14:52.297Z,7.20
2017-04-16T06:15:51.542Z,7.82
2017-04-16T06:16:50.764Z,7.63
2017-04-16T06:17:49.976Z,8.95
2017-04-16T06:18:49.264Z,7.00
2017-04-16T06:19:48.485Z,7.97
2017-04-16T06:20:47.724Z,7.23
2017-04-16T06:21:53.548Z,10.37
2017-04-16T06:22:52.748Z,6.67
2017-04-16T06:23:51.968Z,10.63
2017-04-16T06:24:51.172Z,7.40
2017-04-16T06:25:50.399Z,6.63
2017-04-16T06:26:49.604Z,6.78
2017-04-16T06:27:48.799Z,9.90
2017-04-16T06:28:48.013Z,7.30
2017-04-16T06:29:47.259Z,6.12
2017-04-16T06:30:46.484Z,5.27
2017-04-16T06:31:45.737Z,10.12
2017-04-16T06:32:44.942Z,8.43
2017-04-16T06:33:44.156Z,8.82
2017-04-16T06:34:43.394Z,6.30
2017-04-16T06:35:43.006Z,7.58
2017-04-16T06:36:42.219Z,10.85
2017-04-16T06:37:41.425Z,6.62
2017-04-16T06:38:40.648Z,5.27
2017-04-16T06:39:39.856Z,9.83
2017-04-16T06:40:39.425Z,5.17
2017-04-16T06:41:38.627Z,8.70
2017-04-16T06:42:37.844Z,10.88
2017-04-16T06:43:37.064Z,7.08
2017-04-16T06:44:36.278Z,5.93
2017-04-16T06:45:35.476Z,6.52
2017-04-16T06:46:34.721Z,6.33
2017-04-16T06:47:34.688Z,6.13
2017-04-16T06:48:33.964Z,8.48
2017-04-16T06:49:33.560Z,7.82
2017-04-16T06:50:32.772Z,8.65
2017-04-16T06:51:32.000Z,5.68
2017-04-16T06:52:31.206Z,7.53
2017-04-16T06:53:30.426Z,5.93
2017-04-16T06:54:29.649Z,11.70
2017-04-16T06:55:28.847Z,6.03
2017-04-16T06:56:28.089Z,7.33
2017-04-16T06:57:27.312Z,6.70
2017-04-16T06:58:26.524Z,5.95
2017-04-16T06:59:25.737Z,7.90
2017-04-16T07:00:24.945Z,6.65
2017-04-16T07:01:24.167Z,8.95
2017-04-16T07:02:23.376Z,8.97
2017-04-16T07:03:22.584Z,10.28
2017-04-16T07:04:21.796Z,5.53
2017-04-16T07:05:21.024Z,7.50
2017-04-16T07:06:20.265Z,10.30
2017-04-16T07:07:19.464Z,5.08
2017-04-16T07:08:18.671Z,7.02
2017-04-16T07:09:17.876Z,4.30
2017-04-16T07:10:17.099Z,7.20
2017-04-16T07:11:16.339Z,7.35
2017-04-16T07:12:16.284Z,5.88
2017-04-16T07:13:15.496Z,7.07
2017-04-16T07:14:14.716Z,6.68
2017-04-16T07:15:13.921Z,5.33
2017-04-16T07:16:13.448Z,7.72
2017-04-16T07:17:12.670Z,9.77
2017-04-16T07:18:11.875Z,6.73
2017-04-16T07:19:11.084Z,6.45
2017-04-16T07:20:10.523Z,4.60
2017-04-16T07:21:10.417Z,7.52
2017-04-16T07:22:09.656Z,7.28
2017-04-16T07:23:08.864Z,7.67
2017-04-16T07:24:08.084Z,7.15
2017-04-16T07:25:07.352Z,7.22
2017-04-16T07:26:06.569Z,11.43
2017-04-16T07:27:05.845Z,4.68
2017-04-16T07:28:05.055Z,4.55
2017-04-16T07:29:04.257Z,5.47
2017-04-16T07:30:03.507Z,7.98
2017-04-16T07:31:02.732Z,10.73
2017-04-16T07:32:01.972Z,11.03
2017-04-16T07:33:01.203Z,8.20
2017-04-16T07:34:01.165Z,5.55
2017-04-16T07:35:00.375Z,5.28
2017-04-16T07:35:59.584Z,5.37
2017-04-16T07:36:58.876Z,9.15
2017-04-16T07:37:58.197Z,13.83
2017-04-16T07:38:57.413Z,7.32
2017-04-16T07:39:56.644Z,11.22
2017-04-16T07:40:55.854Z,7.80
2017-04-16T07:41:55.097Z,5.83
2017-04-16T07:42:54.360Z,6.65
2017-04-16T07:43:53.568Z,4.93
2017-04-16T07:44:52.783Z,6.23
2017-04-16T07:45:51.997Z,9.73
2017-04-16T07:46:52.008Z,8.07
2017-04-16T07:47:51.961Z,5.00
2017-04-16T07:48:51.172Z,6.08
2017-04-16T07:49:50.385Z,6.08
2017-04-16T07:50:49.592Z,7.13
2017-04-16T07:51:49.180Z,9.45
2017-04-16T07:52:48.394Z,6.43
2017-04-16T07:53:47.620Z,9.57
2017-04-16T07:54:46.914Z,6.60
2017-04-16T07:55:46.139Z,7.47
2017-04-16T07:56:45.382Z,5.73
2017-04-16T07:57:44.624Z,7.97
2017-04-16T07:58:43.836Z,8.95
2017-04-16T07:59:43.051Z,7.67
2017-04-16T08:00:42.257Z,5.27
2017-04-16T08:01:41.464Z,6.08
2017-04-16T08:02:40.697Z,9.32
2017-04-16T08:03:39.916Z,4.75
2017-04-16T08:04:39.144Z,8.15
2017-04-16T08:05:38.352Z,5.83
2017-04-16T08:06:37.565Z,6.92
2017-04-16T08:07:36.796Z,7.27
2017-04-16T08:08:36.025Z,6.42
2017-04-16T08:09:35.237Z,13.12
2017-04-16T08:10:34.448Z,4.73
2017-04-16T08:11:33.679Z,5.13
2017-04-16T08:12:32.968Z,6.22
2017-04-16T08:13:32.198Z,6.45
2017-04-16T08:14:31.416Z,9.45
2017-04-16T08:15:30.652Z,9.22
2017-04-16T08:16:29.893Z,8.00
2017-04-16T08:17:29.872Z,6.77
2017-04-16T08:18:29.093Z,7.85
2017-04-16T08:19:28.306Z,7.62
2017-04-16T08:20:27.516Z,6.80
2017-04-16T08:21:26.716Z,5.85
2017-04-16T08:22:25.956Z,7.00
2017-04-16T08:23:25.167Z,6.68
2017-04-16T08:24:24.385Z,7.03
2017-04-16T08:25:23.605Z,7.92
2017-04-16T08:26:22.820Z,7.07
2017-04-16T08:27:22.397Z,10.67
2017-04-16T08:28:21.624Z,8.18
2017-04-16T08:29:20.837Z,11.30
2017-04-16T08:30:20.089Z,6.05
2017-04-16T08:31:19.284Z,8.58
2017-04-16T08:32:18.492Z,6.18
2017-04-16T08:33:17.720Z,5.53
2017-04-16T08:34:16.924Z,5.98
2017-04-16T08:35:16.160Z,5.63
2017-04-16T08:36:15.360Z,7.33
2017-04-16T08:37:15.328Z,4.98
2017-04-16T08:38:14.566Z,6.87
2017-04-16T08:39:13.776Z,9.35
2017-04-16T08:40:12.987Z,6.10
2017-04-16T08:41:12.198Z,7.25
2017-04-16T08:42:10.627Z,8.60
2017-04-16T08:43:09.861Z,4.35
2017-04-16T08:44:09.075Z,4.67
2017-04-16T08:45:08.284Z,8.98
2017-04-16T08:46:07.500Z,8.43
2017-04-16T08:47:06.713Z,5.97
2017-04-16T08:48:05.953Z,6.27
2017-04-16T08:49:05.175Z,4.20
2017-04-16T08:50:04.379Z,7.43
2017-04-16T08:51:03.602Z,7.28
2017-04-16T08:52:02.815Z,6.83
2017-04-16T08:53:02.056Z,6.72
2017-04-16T08:54:01.287Z,6.18
2017-04-16T08:55:00.546Z,4.72
2017-04-16T08:55:59.747Z,4.32
2017-04-16T08:56:58.982Z,4.40
2017-04-16T08:57:58.229Z,7.23
2017-04-16T08:58:57.444Z,6.15
2017-04-16T08:59:56.661Z,6.35
2017-04-16T09:00:55.872Z,6.85
2017-04-16T09:01:55.085Z,4.45
2017-04-16T09:02:54.664Z,6.12
2017-04-16T09:03:53.880Z,5.02
2017-04-16T09:04:53.088Z,4.83
2017-04-16T09:05:52.302Z,7.62
2017-04-16T09:06:51.513Z,7.08
2017-04-16T09:07:50.712Z,3.73
2017-04-16T09:08:49.943Z,6.87
2017-04-16T09:09:49.151Z,6.62
2017-04-16T09:10:48.380Z,7.55
2017-04-16T09:11:47.584Z,5.23
2017-04-16T09:12:46.793Z,5.87
2017-04-16T09:13:46.025Z,5.67
2017-04-16T09:14:45.240Z,5.27
2017-04-16T09:15:45.075Z,6.40
2017-04-16T09:16:44.288Z,3.58
2017-04-16T09:17:43.527Z,4.43
2017-04-16T09:18:42.756Z,7.38
2017-04-16T09:19:41.960Z,6.27
2017-04-16T09:20:41.164Z,5.67
2017-04-16T09:21:41.112Z,5.78
2017-04-16T09:22:40.332Z,5.05
2017-04-16T09:23:39.553Z,5.45
2017-04-16T09:24:38.759Z,8.47
2017-04-16T09:25:37.964Z,5.83
2017-04-16T09:26:37.180Z,3.87
2017-04-16T09:27:36.392Z,4.32
2017-04-16T09:28:35.688Z,5.17
2017-04-16T09:29:34.915Z,3.65
2017-04-16T09:30:34.159Z,6.70
2017-04-16T09:31:33.376Z,5.02
2017-04-16T09:32:32.573Z,6.27
2017-04-16T09:33:31.820Z,5.93
2017-04-16T09:34:31.032Z,4.38
2017-04-16T09:35:30.252Z,5.38
2017-04-16T09:36:29.480Z,6.17
2017-04-16T09:37:27.960Z,3.33
2017-04-16T09:38:27.561Z,4.20
2017-04-16T09:39:26.784Z,6.17
2017-04-16T09:40:25.992Z,3.97
2017-04-16T09:41:25.224Z,3.33
2017-04-16T09:42:24.430Z,4.67
2017-04-16T09:43:23.644Z,4.85
2017-04-16T09:44:22.888Z,3.57
2017-04-16T09:45:22.097Z,3.17
2017-04-16T09:46:21.325Z,5.62
2017-04-16T09:47:20.552Z,3.33
2017-04-16T09:48:19.759Z,4.83
2017-04-16T09:49:19.008Z,4.58
2017-04-16T09:50:18.235Z,6.80
2017-04-16T09:51:17.444Z,4.47
2017-04-16T09:52:16.743Z,4.55
2017-04-16T09:53:16.701Z,3.88
2017-04-16T09:54:15.950Z,4.90
2017-04-16T09:55:15.160Z,6.95
2017-04-16T09:56:14.389Z,5.48
2017-04-16T09:57:14.370Z,3.38
2017-04-16T09:58:14.048Z,7.38
2017-04-16T09:59:13.281Z,4.90
2017-04-16T10:00:12.591Z,2.75
2017-04-16T10:01:11.814Z,2.62
2017-04-16T10:02:11.108Z,2.80
2017-04-16T10:03:10.320Z,2.58
2017-04-16T10:04:09.557Z,3.10
2017-04-16T10:05:09.026Z,3.03
2017-04-16T10:06:08.244Z,2.80
2017-04-16T10:07:07.471Z,3.82
2017-04-16T10:08:06.711Z,4.48
2017-04-16T10:09:06.013Z,2.13
2017-04-16T10:10:05.228Z,2.52
2017-04-16T10:11:04.443Z,3.53
2017-04-16T10:12:03.663Z,1.78
2017-04-16T10:13:02.885Z,2.85
2017-04-16T10:14:02.492Z,2.92
2017-04-16T10:15:01.775Z,2.02
2017-04-16T10:16:01.016Z,4.10
2017-04-16T10:17:00.251Z,4.43
2017-04-16T10:17:59.461Z,3.18
2017-04-16T10:18:57.907Z,3.42
2017-04-16T10:19:57.140Z,3.07
2017-04-16T10:20:56.360Z,4.22
2017-04-16T10:21:55.585Z,3.70
2017-04-16T10:22:54.819Z,3.75
2017-04-16T10:23:54.035Z,3.12
2017-04-16T10:24:53.305Z,2.77
2017-04-16T10:25:52.526Z,3.38
2017-04-16T10:26:51.740Z,3.23
2017-04-16T10:27:50.952Z,4.75
2017-04-16T10:28:50.185Z,1.97
2017-04-16T10:29:49.432Z,6.30
2017-04-16T10:30:48.671Z,2.95
2017-04-16T10:31:47.888Z,2.10
2017-04-16T10:32:47.101Z,5.60
2017-04-16T10:33:46.317Z,8.23
2017-04-16T10:34:45.556Z,4.20
2017-04-16T10:35:44.780Z,2.97
2017-04-16T10:36:44.728Z,3.78
2017-04-16T10:37:43.952Z,5.08
2017-04-16T10:38:43.200Z,6.32
2017-04-16T10:39:42.453Z,3.93
2017-04-16T10:40:41.668Z,4.83
2017-04-16T10:41:40.881Z,3.42
2017-04-16T10:42:40.096Z,5.68
2017-04-16T10:43:39.305Z,2.37
2017-04-16T10:44:38.539Z,2.85
2017-04-16T10:45:37.768Z,4.73
2017-04-16T10:46:36.984Z,4.15
2017-04-16T10:47:36.216Z,2.57
2017-04-16T10:48:35.471Z,2.45
2017-04-16T10:49:34.697Z,5.75
2017-04-16T10:50:33.904Z,4.95
2017-04-16T10:51:33.116Z,2.23
2017-04-16T10:52:32.383Z,5.83
2017-04-16T10:53:31.623Z,2.25
2017-04-16T10:54:30.836Z,2.42
2017-04-16T10:55:30.076Z,3.63
2017-04-16T10:56:29.319Z,4.45
2017-04-16T10:57:28.567Z,4.40
2017-04-16T10:58:27.864Z,2.78
2017-04-16T10:59:27.160Z,2.47
2017-04-16T11:00:26.708Z,3.82
2017-04-16T11:01:25.920Z,3.67
2017-04-16T11:02:25.125Z,3.17
2017-04-16T11:03:24.368Z,2.45
2017-04-16T11:04:23.604Z,2.93
2017-04-16T11:05:22.848Z,3.08
2017-04-16T11:06:22.078Z,2.55
2017-04-16T11:07:21.289Z,3.17
2017-04-16T11:08:20.501Z,3.03
2017-04-16T11:09:19.769Z,2.83
2017-04-16T11:10:19.016Z,4.60
2017-04-16T11:11:18.229Z,3.55
2017-04-16T11:12:17.456Z,6.92
2017-04-16T11:13:16.668Z,3.83
2017-04-16T11:14:15.872Z,5.15
2017-04-16T11:15:15.855Z,4.65
2017-04-16T11:16:15.069Z,4.43
2017-04-16T11:17:14.292Z,4.12
2017-04-16T11:18:12.728Z,6.15
2017-04-16T11:19:11.941Z,7.55
2017-04-16T11:20:11.224Z,4.62
2017-04-16T11:21:10.448Z,4.42
2017-04-16T11:22:10.788Z,5.00
2017-04-16T11:23:10.001Z,8.13
2017-04-16T11:24:09.249Z,4.88
2017-04-16T11:25:08.796Z,6.27
2017-04-16T11:26:08.012Z,4.87
2017-04-16T11:27:07.225Z,6.62
2017-04-16T11:28:06.447Z,3.90
2017-04-16T11:29:05.704Z,4.18
2017-04-16T11:30:04.967Z,5.33
2017-04-16T11:31:04.265Z,5.67
2017-04-16T11:32:03.512Z,3.68
2017-04-16T11:33:02.724Z,4.75
2017-04-16T11:34:01.929Z,5.10
2017-04-16T11:35:01.132Z,5.18
2017-04-16T11:36:00.387Z,3.72
2017-04-16T11:36:59.600Z,3.25
2017-04-16T11:37:58.053Z,3.67
2017-04-16T11:38:57.292Z,4.50
2017-04-16T11:39:56.517Z,4.78
2017-04-16T11:40:55.785Z,4.17
2017-04-16T11:41:55.068Z,5.37
2017-04-16T11:42:54.296Z,3.92
2017-04-16T11:43:53.522Z,4.10
2017-04-16T11:44:52.772Z,1.98
2017-04-16T11:45:52.004Z,3.08
2017-04-16T11:46:51.223Z,3.78
2017-04-16T11:47:50.463Z,5.25
2017-04-16T11:48:49.897Z,2.75
2017-04-16T11:49:49.113Z,1.60
2017-04-16T11:50:48.352Z,2.98
2017-04-16T11:51:47.564Z,2.65
2017-04-16T11:52:46.819Z,2.22
2017-04-16T11:53:46.077Z,3.28
2017-04-16T11:54:45.293Z,1.55
2017-04-16T11:55:44.548Z,2.87
2017-04-16T11:56:43.769Z,2.92
2017-04-16T11:57:43.057Z,1.40
2017-04-16T11:58:42.272Z,2.80
2017-04-16T11:59:41.488Z,1.33
2017-04-16T12:00:41.052Z,2.23
2017-04-16T12:01:40.301Z,2.42
2017-04-16T12:02:39.508Z,1.43
2017-04-16T12:03:39.487Z,3.75
2017-04-16T12:04:38.720Z,1.95
2017-04-16T12:05:37.940Z,1.95
2017-04-16T12:06:37.173Z,1.52
2017-04-16T12:07:36.445Z,2.00
2017-04-16T12:08:35.693Z,2.22
2017-04-16T12:09:34.900Z,1.67
2017-04-16T12:10:34.124Z,2.07
2017-04-16T12:11:33.366Z,3.05
2017-04-16T12:12:32.596Z,2.42
2017-04-16T12:13:31.931Z,2.20
2017-04-16T12:14:31.144Z,3.32
2017-04-16T12:15:30.368Z,2.02
2017-04-16T12:16:29.617Z,2.75
2017-04-16T12:17:28.071Z,1.72
2017-04-16T12:18:27.336Z,2.87
2017-04-16T12:19:26.633Z,2.30
2017-04-16T12:20:25.880Z,4.27
2017-04-16T12:21:25.272Z,3.15
2017-04-16T12:22:24.488Z,3.03
2017-04-16T12:23:23.741Z,2.55
2017-04-16T12:24:22.993Z,2.73
2017-04-16T12:25:22.208Z,3.90
2017-04-16T12:26:21.453Z,3.87
2017-04-16T12:27:20.677Z,4.50
2017-04-16T12:28:19.892Z,2.25
2017-04-16T12:29:19.868Z,2.78
2017-04-16T12:30:19.109Z,2.80
2017-04-16T12:31:18.393Z,3.08
2017-04-16T12:32:17.629Z,2.53
2017-04-16T12:33:16.836Z,2.97
2017-04-16T12:34:16.049Z,3.30
2017-04-16T12:35:15.336Z,2.80
2017-04-16T12:36:14.876Z,2.65
2017-04-16T12:37:14.139Z,3.90
2017-04-16T12:38:12.579Z,3.90
2017-04-16T12:39:11.792Z,4.95
2017-04-16T12:40:11.058Z,3.07
2017-04-16T12:41:10.291Z,3.85
2017-04-16T12:42:09.587Z,3.07
2017-04-16T12:43:08.804Z,6.13
2017-04-16T12:44:08.013Z,4.37
2017-04-16T12:45:07.280Z,2.68
2017-04-16T12:46:06.504Z,2.82
2017-04-16T12:47:05.741Z,6.08
2017-04-16T12:48:04.949Z,3.03
2017-04-16T12:49:04.165Z,4.07
2017-04-16T12:50:03.388Z,2.20
2017-04-16T12:51:03.348Z,2.85
2017-04-16T12:52:02.575Z,3.95
2017-04-16T12:53:01.788Z,3.85
2017-04-16T12:54:01.000Z,2.42
2017-04-16T12:54:59.454Z,2.53
2017-04-16T12:55:58.743Z,5.55
2017-04-16T12:56:57.992Z,2.50
2017-04-16T12:57:57.216Z,2.02
2017-04-16T12:58:56.441Z,2.03
2017-04-16T12:59:55.660Z,2.13
2017-04-16T13:00:54.916Z,2.15
2017-04-16T13:01:54.157Z,3.85
2017-04-16T13:02:53.368Z,2.53